This is the latest recevied weather packets stored in our database for station/object VK3BKO-13. If no packets are shown the sender has not sent any weather packets the latest 10 day(s).
| Time | Temp. | Humidity | Pressure | Rain* | Wind** | Luminosity | Snow |
|---|---|---|---|---|---|---|---|
| 1777425424 | 18.89° C | 70% | 1028.8 hPa | 0 mm | - | 390 W/m² | - |
| 1777424523 | 18.89° C | 70% | 1028.8 hPa | 0 mm | - | 367 W/m² | - |
| 1777423624 | 18.89° C | 70% | 1028.5 hPa | 0 mm | - | 438 W/m² | - |
| 1777422724 | 17.78° C | 73% | 1028.5 hPa | 0 mm | - | 416 W/m² | - |
| 1777421824 | 17.78° C | 74% | 1028.8 hPa | 0 mm | - | 397 W/m² | - |
| 1777420924 | 17.78° C | 74% | 1028.8 hPa | 0 mm | - | 372 W/m² | - |
| 1777420024 | 17.78° C | 75% | 1028.8 hPa | 0 mm | - | 323 W/m² | - |
| 1777419124 | 16.67° C | 79% | 1029.2 hPa | 0 mm | - | 287 W/m² | - |
| 1777418224 | 16.67° C | 81% | 1029.2 hPa | 0 mm | - | 260 W/m² | - |
| 1777417324 | 16.11° C | 85% | 1029.2 hPa | 0 mm | - | 180 W/m² | - |
| 1777416424 | 15.56° C | 84% | 1029.2 hPa | 0 mm | - | 166 W/m² | - |
| 1777415524 | 15° C | 89% | 1028.8 hPa | 0 mm | - | 123 W/m² | - |
| 1777414624 | 13.89° C | 92% | 1028.8 hPa | 0 mm | - | 81 W/m² | - |
| 1777413724 | 11.67° C | 94% | 1028.5 hPa | 0 mm | - | 80 W/m² | - |
| 1777412824 | 10.56° C | 93% | 1028.5 hPa | 0 mm | - | 36 W/m² | - |
| 1777411924 | 10° C | 93% | 1028.1 hPa | 0 mm | - | 23 W/m² | - |
| 1777411024 | 10° C | 93% | 1028.1 hPa | 0 mm | - | 10 W/m² | - |
| 1777410124 | 10.56° C | 93% | 1028.1 hPa | 0 mm | - | 4 W/m² | - |
| 1777409224 | 10° C | 93% | 1027.8 hPa | 0 mm | - | 0 W/m² | - |
| 1777408324 | 10.56° C | 93% | 1027.5 hPa | 0 mm | - | 0 W/m² | - |
| 1777407424 | 10° C | 93% | 1027.5 hPa | 0 mm | - | 0 W/m² | - |
| 1777406523 | 10.56° C | 92% | 1027.5 hPa | 0 mm | - | 0 W/m² | - |
| 1777405623 | 10.56° C | 93% | 1027.5 hPa | 0 mm | - | 0 W/m² | - |
| 1777404723 | 10.56° C | 92% | 1027.5 hPa | 0 mm | - | 0 W/m² | - |
| 1777403824 | 10.56° C | 92% | 1027.5 hPa | 0 mm | - | 0 W/m² | - |
* Rain latest hour (hover to see other rain measurements)
** Current wind speed in m/s (hover to see current wind gust speed)